KAWG

Washington Municipal Airport

Washington, Iowa, USA
METAR KAWG 181555Z AUTO 24011KT 5SM BR CLR 03/03 A3001 RMK AO2
Observed Flight Rules
Dec-18 @ 15:55 UTC (25 minutes ago) Marginal Visual Flight Rules
Wind Visibility Clouds Conditions
240° at 11 knots 5 miles
  • Clear skies
  • Mist
Temperatures Readings
Current 3°C / 37°F
Dewpoint 3°C / 37°F
Humidity 100%
Altimeter 30.01" Hg
Pressure 1016 hPa
Elevation 230
METAR KAWG 181555Z AUTO 24011KT 5SM BR CLR 03/03 A3001 RMK AO2
Observed Flight Rules
Dec-18 @ 15:55 UTC
(25 minutes ago)
MVFR
Wind Visibility
240° at 11 knots 5 miles
Clouds
  • Clear skies
Conditions
  • Mist
Temperature Dewpoint
3°C / 37°F 3°C / 37°F
Humidity Altimeter Pressure
100% 30.01" Hg 1016 hPa